Main page
METAR-TAF:

METAR-TAF

Airports :

London-Southend, England

London Southend Airport

latitude: 51-34N, longitude: 000-42E, elevation: 15 m

Current weather observation

The report was made 25 minutes ago, at 08:50 UTC
Wind 15 kt from the East/Northeast
Temperature 10°C
Humidity 71%
Pressure 1025 hPa
Visibility 10 km or more
no clouds below 1500 m and no cumulonimbus

METAR: EGMC 260850Z 07015KT CAVOK 10/05 Q1025

Time: 10:15 (09:15 UTC)

Forecast

The report was made 1 hour and 18 minutes ago, at 07:57 UTC
Forecast valid from 26 at 09 UTC to 26 at 18 UTC
Wind 11 kt from the East/Northeast
Visibility 10 km or more
no clouds below 1500 m and no cumulonimbus

TAF: EGMC 260757Z 2609/2618 06011KT CAVOK

Weather observations and forecasts of more than 4000 airports (METAR and TAF reports).

The available stations are represented by yellow and red dots on the map.

Hover mouse over dot to see the name of the station.

Then click to see weather observations and forecasts.

To change the map : click on the green buttons with a black cross to zoom in, on the green button with a dash to zoom out, or on the green arrows for adjacent maps.


METAR-TAF: